sensor_id;sensor_type;location;lat;lon;timestamp;P1;durP1;ratioP1;P2;durP2;ratioP2
20749;SDS011;10535;50.664;4.564;2022-08-01T00:00:40;2.93;;;0.90;;
20749;SDS011;10535;50.664;4.564;2022-08-01T00:03:07;2.30;;;1.00;;
20749;SDS011;10535;50.664;4.564;2022-08-01T00:05:35;1.77;;;0.90;;
20749;SDS011;10535;50.664;4.564;2022-08-01T00:08:08;0.60;;;0.60;;
20749;SDS011;10535;50.664;4.564;2022-08-01T00:10:36;2.03;;;1.20;;
20749;SDS011;10535;50.664;4.564;2022-08-01T00:13:03;1.80;;;1.03;;
20749;SDS011;10535;50.664;4.564;2022-08-01T00:15:40;0.80;;;0.73;;
20749;SDS011;10535;50.664;4.564;2022-08-01T00:18:09;0.67;;;0.67;;
20749;SDS011;10535;50.664;4.564;2022-08-01T00:20:34;0.80;;;0.67;;
20749;SDS011;10535;50.664;4.564;2022-08-01T00:23:03;1.87;;;1.57;;
20749;SDS011;10535;50.664;4.564;2022-08-01T00:25:32;1.90;;;0.93;;
20749;SDS011;10535;50.664;4.564;2022-08-01T00:28:00;0.70;;;0.70;;
20749;SDS011;10535;50.664;4.564;2022-08-01T00:30:33;1.70;;;0.90;;
20749;SDS011;10535;50.664;4.564;2022-08-01T00:33:02;2.20;;;1.17;;
20749;SDS011;10535;50.664;4.564;2022-08-01T00:35:45;2.13;;;0.80;;
20749;SDS011;10535;50.664;4.564;2022-08-01T00:38:11;1.87;;;1.10;;
20749;SDS011;10535;50.664;4.564;2022-08-01T00:40:36;0.97;;;0.80;;
20749;SDS011;10535;50.664;4.564;2022-08-01T00:43:02;2.53;;;1.07;;
20749;SDS011;10535;50.664;4.564;2022-08-01T00:45:29;0.97;;;0.90;;
20749;SDS011;10535;50.664;4.564;2022-08-01T00:47:56;2.00;;;1.20;;
20749;SDS011;10535;50.664;4.564;2022-08-01T00:50:22;0.93;;;0.83;;
20749;SDS011;10535;50.664;4.564;2022-08-01T00:52:53;1.20;;;1.03;;
20749;SDS011;10535;50.664;4.564;2022-08-01T00:55:29;4.33;;;1.50;;
20749;SDS011;10535;50.664;4.564;2022-08-01T00:57:56;1.10;;;1.00;;
20749;SDS011;10535;50.664;4.564;2022-08-01T01:00:23;1.57;;;1.20;;
20749;SDS011;10535;50.664;4.564;2022-08-01T01:02:50;1.80;;;1.23;;
20749;SDS011;10535;50.664;4.564;2022-08-01T01:05:20;1.60;;;1.27;;
20749;SDS011;10535;50.664;4.564;2022-08-01T01:08:08;1.80;;;1.07;;
20749;SDS011;10535;50.664;4.564;2022-08-01T01:10:58;1.90;;;1.27;;
20749;SDS011;10535;50.664;4.564;2022-08-01T01:13:43;1.70;;;1.40;;
20749;SDS011;10535;50.664;4.564;2022-08-01T01:16:18;1.90;;;1.40;;
20749;SDS011;10535;50.664;4.564;2022-08-01T01:18:57;1.60;;;1.47;;
20749;SDS011;10535;50.664;4.564;2022-08-01T01:27:57;2.10;;;1.63;;
20749;SDS011;10535;50.664;4.564;2022-08-01T01:30:43;1.60;;;1.50;;
20749;SDS011;10535;50.664;4.564;2022-08-01T01:33:16;2.20;;;1.40;;
20749;SDS011;10535;50.664;4.564;2022-08-01T01:35:49;2.90;;;1.60;;
20749;SDS011;10535;50.664;4.564;2022-08-01T01:39:00;1.70;;;1.37;;
20749;SDS011;10535;50.664;4.564;2022-08-01T01:41:26;3.00;;;2.00;;
20749;SDS011;10535;50.664;4.564;2022-08-01T01:43:56;1.90;;;1.23;;
20749;SDS011;10535;50.664;4.564;2022-08-01T01:46:30;1.73;;;1.43;;
20749;SDS011;10535;50.664;4.564;2022-08-01T01:48:57;2.90;;;2.27;;
20749;SDS011;10535;50.664;4.564;2022-08-01T01:51:27;1.40;;;1.30;;
20749;SDS011;10535;50.664;4.564;2022-08-01T01:54:05;2.33;;;1.37;;
20749;SDS011;10535;50.664;4.564;2022-08-01T01:56:38;2.10;;;1.90;;
20749;SDS011;10535;50.664;4.564;2022-08-01T01:59:38;2.37;;;1.53;;
20749;SDS011;10535;50.664;4.564;2022-08-01T02:02:10;4.23;;;1.40;;
20749;SDS011;10535;50.664;4.564;2022-08-01T02:05:01;3.00;;;1.50;;
20749;SDS011;10535;50.664;4.564;2022-08-01T02:07:28;1.57;;;1.40;;
20749;SDS011;10535;50.664;4.564;2022-08-01T02:10:40;2.53;;;2.00;;
20749;SDS011;10535;50.664;4.564;2022-08-01T02:13:31;5.43;;;2.67;;
20749;SDS011;10535;50.664;4.564;2022-08-01T02:16:33;6.10;;;2.20;;
20749;SDS011;10535;50.664;4.564;2022-08-01T02:19:10;2.47;;;2.07;;
20749;SDS011;10535;50.664;4.564;2022-08-01T02:21:40;4.87;;;2.17;;
20749;SDS011;10535;50.664;4.564;2022-08-01T02:28:06;5.20;;;2.53;;
20749;SDS011;10535;50.664;4.564;2022-08-01T02:30:35;4.90;;;2.23;;
20749;SDS011;10535;50.664;4.564;2022-08-01T02:33:08;3.10;;;2.20;;
20749;SDS011;10535;50.664;4.564;2022-08-01T02:35:40;5.53;;;2.10;;
20749;SDS011;10535;50.664;4.564;2022-08-01T02:38:11;2.13;;;1.93;;
20749;SDS011;10535;50.664;4.564;2022-08-01T02:40:40;4.57;;;2.00;;
20749;SDS011;10535;50.664;4.564;2022-08-01T02:43:08;2.50;;;2.10;;
20749;SDS011;10535;50.664;4.564;2022-08-01T02:45:37;5.53;;;3.07;;
20749;SDS011;10535;50.664;4.564;2022-08-01T02:48:11;3.07;;;2.30;;
20749;SDS011;10535;50.664;4.564;2022-08-01T02:50:39;3.83;;;2.60;;
20749;SDS011;10535;50.664;4.564;2022-08-01T02:53:08;4.10;;;2.37;;
20749;SDS011;10535;50.664;4.564;2022-08-01T02:55:36;3.80;;;2.57;;
20749;SDS011;10535;50.664;4.564;2022-08-01T02:58:04;8.97;;;3.33;;
20749;SDS011;10535;50.664;4.564;2022-08-01T03:00:32;3.77;;;2.17;;
20749;SDS011;10535;50.664;4.564;2022-08-01T03:02:59;4.43;;;2.37;;
20749;SDS011;10535;50.664;4.564;2022-08-01T03:05:27;4.63;;;2.53;;
20749;SDS011;10535;50.664;4.564;2022-08-01T03:07:55;6.33;;;2.60;;
20749;SDS011;10535;50.664;4.564;2022-08-01T03:10:24;3.80;;;2.57;;
20749;SDS011;10535;50.664;4.564;2022-08-01T03:12:52;6.33;;;3.53;;
20749;SDS011;10535;50.664;4.564;2022-08-01T03:15:19;4.57;;;2.80;;
20749;SDS011;10535;50.664;4.564;2022-08-01T03:17:46;4.13;;;2.67;;
20749;SDS011;10535;50.664;4.564;2022-08-01T03:20:15;6.03;;;2.67;;
20749;SDS011;10535;50.664;4.564;2022-08-01T03:22:45;6.67;;;3.13;;
20749;SDS011;10535;50.664;4.564;2022-08-01T03:25:13;5.03;;;2.40;;
20749;SDS011;10535;50.664;4.564;2022-08-01T03:27:42;4.10;;;2.70;;
20749;SDS011;10535;50.664;4.564;2022-08-01T03:30:10;6.13;;;2.67;;
20749;SDS011;10535;50.664;4.564;2022-08-01T03:32:37;4.50;;;2.33;;
20749;SDS011;10535;50.664;4.564;2022-08-01T03:35:03;4.20;;;3.13;;
20749;SDS011;10535;50.664;4.564;2022-08-01T03:37:34;9.07;;;3.87;;
20749;SDS011;10535;50.664;4.564;2022-08-01T03:40:10;5.77;;;3.43;;
20749;SDS011;10535;50.664;4.564;2022-08-01T03:42:44;10.33;;;4.47;;
20749;SDS011;10535;50.664;4.564;2022-08-01T03:45:15;5.67;;;3.07;;
20749;SDS011;10535;50.664;4.564;2022-08-01T03:47:47;6.10;;;3.50;;
20749;SDS011;10535;50.664;4.564;2022-08-01T03:50:16;8.60;;;3.47;;
20749;SDS011;10535;50.664;4.564;2022-08-01T03:52:45;9.77;;;2.97;;
20749;SDS011;10535;50.664;4.564;2022-08-01T03:55:13;7.30;;;3.07;;
20749;SDS011;10535;50.664;4.564;2022-08-01T03:57:41;4.30;;;3.00;;
20749;SDS011;10535;50.664;4.564;2022-08-01T04:00:08;6.83;;;3.23;;
20749;SDS011;10535;50.664;4.564;2022-08-01T04:02:35;10.00;;;3.53;;
20749;SDS011;10535;50.664;4.564;2022-08-01T04:05:02;6.70;;;3.40;;
20749;SDS011;10535;50.664;4.564;2022-08-01T04:07:32;6.53;;;2.90;;
20749;SDS011;10535;50.664;4.564;2022-08-01T04:10:01;11.10;;;3.93;;
20749;SDS011;10535;50.664;4.564;2022-08-01T04:12:26;5.77;;;3.50;;
20749;SDS011;10535;50.664;4.564;2022-08-01T04:14:52;8.50;;;4.47;;
20749;SDS011;10535;50.664;4.564;2022-08-01T04:17:18;8.17;;;4.07;;
20749;SDS011;10535;50.664;4.564;2022-08-01T04:19:45;9.63;;;4.40;;
20749;SDS011;10535;50.664;4.564;2022-08-01T04:22:11;7.03;;;4.33;;
20749;SDS011;10535;50.664;4.564;2022-08-01T04:24:38;6.37;;;3.93;;
20749;SDS011;10535;50.664;4.564;2022-08-01T04:27:09;14.90;;;5.30;;
20749;SDS011;10535;50.664;4.564;2022-08-01T04:29:38;8.63;;;4.63;;
20749;SDS011;10535;50.664;4.564;2022-08-01T04:32:05;8.03;;;3.97;;
20749;SDS011;10535;50.664;4.564;2022-08-01T04:34:34;6.37;;;4.20;;
20749;SDS011;10535;50.664;4.564;2022-08-01T04:37:03;6.37;;;3.87;;
20749;SDS011;10535;50.664;4.564;2022-08-01T04:39:31;9.07;;;3.63;;
20749;SDS011;10535;50.664;4.564;2022-08-01T04:41:59;13.23;;;4.63;;
20749;SDS011;10535;50.664;4.564;2022-08-01T04:44:28;9.70;;;4.80;;
20749;SDS011;10535;50.664;4.564;2022-08-01T04:46:57;7.30;;;4.20;;
20749;SDS011;10535;50.664;4.564;2022-08-01T04:49:29;7.20;;;4.47;;
20749;SDS011;10535;50.664;4.564;2022-08-01T04:51:57;12.57;;;4.50;;
20749;SDS011;10535;50.664;4.564;2022-08-01T04:54:25;7.67;;;4.83;;
20749;SDS011;10535;50.664;4.564;2022-08-01T04:56:58;9.53;;;4.30;;
20749;SDS011;10535;50.664;4.564;2022-08-01T04:59:28;8.07;;;3.90;;
20749;SDS011;10535;50.664;4.564;2022-08-01T05:02:04;14.37;;;4.97;;
20749;SDS011;10535;50.664;4.564;2022-08-01T05:04:30;12.30;;;5.07;;
20749;SDS011;10535;50.664;4.564;2022-08-01T05:06:56;6.97;;;4.07;;
20749;SDS011;10535;50.664;4.564;2022-08-01T05:09:21;10.23;;;3.57;;
20749;SDS011;10535;50.664;4.564;2022-08-01T05:11:47;11.43;;;4.30;;
20749;SDS011;10535;50.664;4.564;2022-08-01T05:14:13;9.87;;;4.73;;
20749;SDS011;10535;50.664;4.564;2022-08-01T05:16:38;11.57;;;5.07;;
20749;SDS011;10535;50.664;4.564;2022-08-01T05:19:04;16.97;;;5.23;;
20749;SDS011;10535;50.664;4.564;2022-08-01T05:21:29;8.83;;;4.77;;
20749;SDS011;10535;50.664;4.564;2022-08-01T05:23:55;13.37;;;5.47;;
20749;SDS011;10535;50.664;4.564;2022-08-01T05:26:21;9.73;;;4.37;;
20749;SDS011;10535;50.664;4.564;2022-08-01T05:28:46;9.20;;;3.93;;
20749;SDS011;10535;50.664;4.564;2022-08-01T05:31:12;9.17;;;5.03;;
20749;SDS011;10535;50.664;4.564;2022-08-01T05:33:37;9.40;;;4.93;;
20749;SDS011;10535;50.664;4.564;2022-08-01T05:36:03;9.40;;;4.57;;
20749;SDS011;10535;50.664;4.564;2022-08-01T05:38:29;12.23;;;4.93;;
20749;SDS011;10535;50.664;4.564;2022-08-01T05:40:55;11.23;;;4.87;;
20749;SDS011;10535;50.664;4.564;2022-08-01T05:43:20;8.83;;;4.70;;
20749;SDS011;10535;50.664;4.564;2022-08-01T05:45:46;11.70;;;5.27;;
20749;SDS011;10535;50.664;4.564;2022-08-01T05:48:12;9.23;;;4.40;;
20749;SDS011;10535;50.664;4.564;2022-08-01T05:50:37;7.27;;;4.20;;
20749;SDS011;10535;50.664;4.564;2022-08-01T05:53:03;13.17;;;4.83;;
20749;SDS011;10535;50.664;4.564;2022-08-01T05:55:29;10.30;;;4.03;;
20749;SDS011;10535;50.664;4.564;2022-08-01T05:57:54;10.70;;;5.03;;
20749;SDS011;10535;50.664;4.564;2022-08-01T06:00:20;9.63;;;5.10;;
20749;SDS011;10535;50.664;4.564;2022-08-01T06:02:46;9.83;;;4.33;;
20749;SDS011;10535;50.664;4.564;2022-08-01T06:05:11;6.97;;;3.87;;
20749;SDS011;10535;50.664;4.564;2022-08-01T06:07:37;8.73;;;4.17;;
20749;SDS011;10535;50.664;4.564;2022-08-01T06:10:04;6.20;;;3.97;;
20749;SDS011;10535;50.664;4.564;2022-08-01T06:12:32;7.03;;;5.00;;
20749;SDS011;10535;50.664;4.564;2022-08-01T06:14:58;8.57;;;4.33;;
20749;SDS011;10535;50.664;4.564;2022-08-01T06:17:24;8.10;;;3.80;;
20749;SDS011;10535;50.664;4.564;2022-08-01T06:19:50;9.67;;;4.73;;
20749;SDS011;10535;50.664;4.564;2022-08-01T06:22:15;8.43;;;4.40;;
20749;SDS011;10535;50.664;4.564;2022-08-01T06:24:41;7.60;;;4.50;;
20749;SDS011;10535;50.664;4.564;2022-08-01T06:27:07;7.43;;;3.50;;
20749;SDS011;10535;50.664;4.564;2022-08-01T06:29:32;5.57;;;3.27;;
20749;SDS011;10535;50.664;4.564;2022-08-01T06:31:58;7.00;;;4.10;;
20749;SDS011;10535;50.664;4.564;2022-08-01T06:34:24;5.60;;;3.80;;
20749;SDS011;10535;50.664;4.564;2022-08-01T06:36:50;6.47;;;3.73;;
20749;SDS011;10535;50.664;4.564;2022-08-01T06:39:16;5.17;;;2.90;;
20749;SDS011;10535;50.664;4.564;2022-08-01T06:41:41;4.43;;;3.07;;
20749;SDS011;10535;50.664;4.564;2022-08-01T06:44:07;4.63;;;2.83;;
20749;SDS011;10535;50.664;4.564;2022-08-01T06:46:33;8.23;;;2.93;;
20749;SDS011;10535;50.664;4.564;2022-08-01T06:48:59;8.60;;;4.20;;
20749;SDS011;10535;50.664;4.564;2022-08-01T06:51:25;8.50;;;3.73;;
20749;SDS011;10535;50.664;4.564;2022-08-01T06:53:51;10.03;;;3.93;;
20749;SDS011;10535;50.664;4.564;2022-08-01T06:56:17;7.53;;;5.00;;
20749;SDS011;10535;50.664;4.564;2022-08-01T06:58:43;9.90;;;4.57;;
20749;SDS011;10535;50.664;4.564;2022-08-01T07:01:08;10.07;;;4.63;;
20749;SDS011;10535;50.664;4.564;2022-08-01T07:03:34;11.70;;;4.93;;
20749;SDS011;10535;50.664;4.564;2022-08-01T07:06:00;9.83;;;4.87;;
20749;SDS011;10535;50.664;4.564;2022-08-01T07:08:26;11.20;;;4.77;;
20749;SDS011;10535;50.664;4.564;2022-08-01T07:10:52;8.07;;;4.13;;
20749;SDS011;10535;50.664;4.564;2022-08-01T07:13:17;9.60;;;4.43;;
20749;SDS011;10535;50.664;4.564;2022-08-01T07:15:47;7.00;;;4.00;;
20749;SDS011;10535;50.664;4.564;2022-08-01T07:18:13;13.27;;;5.20;;
20749;SDS011;10535;50.664;4.564;2022-08-01T07:20:39;9.60;;;3.70;;
20749;SDS011;10535;50.664;4.564;2022-08-01T07:23:04;6.27;;;3.93;;
20749;SDS011;10535;50.664;4.564;2022-08-01T07:25:30;9.90;;;4.17;;
20749;SDS011;10535;50.664;4.564;2022-08-01T07:27:56;9.00;;;4.07;;
20749;SDS011;10535;50.664;4.564;2022-08-01T07:30:21;8.00;;;4.53;;
20749;SDS011;10535;50.664;4.564;2022-08-01T07:32:47;9.03;;;4.53;;
20749;SDS011;10535;50.664;4.564;2022-08-01T07:35:12;7.70;;;4.03;;
20749;SDS011;10535;50.664;4.564;2022-08-01T07:37:38;7.03;;;4.20;;
20749;SDS011;10535;50.664;4.564;2022-08-01T07:40:04;9.40;;;4.70;;
20749;SDS011;10535;50.664;4.564;2022-08-01T07:42:31;8.47;;;4.17;;
20749;SDS011;10535;50.664;4.564;2022-08-01T07:44:57;10.03;;;4.10;;
20749;SDS011;10535;50.664;4.564;2022-08-01T07:47:23;14.83;;;4.40;;
20749;SDS011;10535;50.664;4.564;2022-08-01T07:49:50;7.80;;;3.77;;
20749;SDS011;10535;50.664;4.564;2022-08-01T07:52:16;7.10;;;3.53;;
20749;SDS011;10535;50.664;4.564;2022-08-01T07:54:41;6.63;;;4.23;;
20749;SDS011;10535;50.664;4.564;2022-08-01T07:57:07;8.03;;;4.13;;
20749;SDS011;10535;50.664;4.564;2022-08-01T07:59:33;7.67;;;4.17;;
20749;SDS011;10535;50.664;4.564;2022-08-01T08:01:59;6.03;;;3.43;;
20749;SDS011;10535;50.664;4.564;2022-08-01T08:04:25;10.40;;;4.17;;
20749;SDS011;10535;50.664;4.564;2022-08-01T08:06:51;7.82;;;3.67;;
20749;SDS011;10535;50.664;4.564;2022-08-01T08:09:18;10.63;;;3.77;;
20749;SDS011;10535;50.664;4.564;2022-08-01T08:11:44;5.40;;;3.07;;
20749;SDS011;10535;50.664;4.564;2022-08-01T08:14:10;7.47;;;3.78;;
20749;SDS011;10535;50.664;4.564;2022-08-01T08:16:36;6.22;;;3.30;;
20749;SDS011;10535;50.664;4.564;2022-08-01T08:19:01;6.35;;;2.88;;
20749;SDS011;10535;50.664;4.564;2022-08-01T08:21:27;6.65;;;3.30;;
20749;SDS011;10535;50.664;4.564;2022-08-01T08:23:53;3.50;;;2.92;;
20749;SDS011;10535;50.664;4.564;2022-08-01T08:26:37;5.73;;;3.60;;
20749;SDS011;10535;50.664;4.564;2022-08-01T08:29:03;4.07;;;3.00;;
20749;SDS011;10535;50.664;4.564;2022-08-01T08:31:28;6.22;;;2.38;;
20749;SDS011;10535;50.664;4.564;2022-08-01T08:33:54;4.05;;;2.72;;
20749;SDS011;10535;50.664;4.564;2022-08-01T08:36:20;6.03;;;3.13;;
20749;SDS011;10535;50.664;4.564;2022-08-01T08:38:48;5.50;;;2.70;;
20749;SDS011;10535;50.664;4.564;2022-08-01T08:41:14;5.82;;;3.08;;
20749;SDS011;10535;50.664;4.564;2022-08-01T08:43:40;4.63;;;2.90;;
20749;SDS011;10535;50.664;4.564;2022-08-01T08:46:07;5.50;;;2.35;;
20749;SDS011;10535;50.664;4.564;2022-08-01T08:48:35;2.40;;;1.83;;
20749;SDS011;10535;50.664;4.564;2022-08-01T08:51:04;1.63;;;1.52;;
20749;SDS011;10535;50.664;4.564;2022-08-01T08:53:30;2.53;;;2.00;;
20749;SDS011;10535;50.664;4.564;2022-08-01T08:55:58;2.42;;;1.95;;
20749;SDS011;10535;50.664;4.564;2022-08-01T08:58:25;6.40;;;2.45;;
20749;SDS011;10535;50.664;4.564;2022-08-01T09:00:52;1.92;;;1.48;;
20749;SDS011;10535;50.664;4.564;2022-08-01T09:03:19;4.60;;;2.33;;
20749;SDS011;10535;50.664;4.564;2022-08-01T09:05:46;2.28;;;1.67;;
20749;SDS011;10535;50.664;4.564;2022-08-01T09:08:14;3.03;;;1.70;;
20749;SDS011;10535;50.664;4.564;2022-08-01T09:10:39;3.38;;;1.65;;
20749;SDS011;10535;50.664;4.564;2022-08-01T09:13:10;1.70;;;1.40;;
20749;SDS011;10535;50.664;4.564;2022-08-01T09:15:45;1.42;;;1.33;;
20749;SDS011;10535;50.664;4.564;2022-08-01T09:23:38;2.88;;;1.52;;
20749;SDS011;10535;50.664;4.564;2022-08-01T09:26:13;2.30;;;1.80;;
20749;SDS011;10535;50.664;4.564;2022-08-01T09:29:00;3.35;;;1.70;;
20749;SDS011;10535;50.664;4.564;2022-08-01T09:31:28;1.75;;;1.42;;
20749;SDS011;10535;50.664;4.564;2022-08-01T09:34:04;1.90;;;1.45;;
20749;SDS011;10535;50.664;4.564;2022-08-01T09:39:21;2.58;;;1.73;;
20749;SDS011;10535;50.664;4.564;2022-08-01T09:41:48;2.38;;;2.10;;
20749;SDS011;10535;50.664;4.564;2022-08-01T09:44:16;2.03;;;1.50;;
20749;SDS011;10535;50.664;4.564;2022-08-01T09:46:53;2.60;;;1.48;;
20749;SDS011;10535;50.664;4.564;2022-08-01T09:49:29;2.90;;;2.28;;
20749;SDS011;10535;50.664;4.564;2022-08-01T09:52:00;2.92;;;1.48;;
20749;SDS011;10535;50.664;4.564;2022-08-01T09:54:53;1.85;;;1.23;;
20749;SDS011;10535;50.664;4.564;2022-08-01T09:57:19;3.45;;;2.05;;
20749;SDS011;10535;50.664;4.564;2022-08-01T09:59:49;1.98;;;1.48;;
20749;SDS011;10535;50.664;4.564;2022-08-01T10:02:28;2.90;;;1.67;;
20749;SDS011;10535;50.664;4.564;2022-08-01T10:04:57;2.05;;;1.63;;
20749;SDS011;10535;50.664;4.564;2022-08-01T10:07:25;2.15;;;1.52;;
20749;SDS011;10535;50.664;4.564;2022-08-01T10:09:51;2.03;;;1.30;;
20749;SDS011;10535;50.664;4.564;2022-08-01T10:12:18;1.55;;;1.45;;
20749;SDS011;10535;50.664;4.564;2022-08-01T10:14:49;2.85;;;2.05;;
20749;SDS011;10535;50.664;4.564;2022-08-01T10:17:16;1.48;;;1.15;;
20749;SDS011;10535;50.664;4.564;2022-08-01T10:19:44;1.73;;;1.15;;
20749;SDS011;10535;50.664;4.564;2022-08-01T10:22:12;1.40;;;1.30;;
20749;SDS011;10535;50.664;4.564;2022-08-01T10:24:46;3.85;;;1.75;;
20749;SDS011;10535;50.664;4.564;2022-08-01T10:27:20;2.15;;;1.60;;
20749;SDS011;10535;50.664;4.564;2022-08-01T10:29:51;2.53;;;1.58;;
20749;SDS011;10535;50.664;4.564;2022-08-01T10:32:23;1.73;;;1.63;;
20749;SDS011;10535;50.664;4.564;2022-08-01T10:34:49;1.23;;;1.10;;
20749;SDS011;10535;50.664;4.564;2022-08-01T10:37:18;2.55;;;1.48;;
20749;SDS011;10535;50.664;4.564;2022-08-01T10:39:47;1.75;;;1.27;;
20749;SDS011;10535;50.664;4.564;2022-08-01T10:42:17;1.55;;;0.95;;
20749;SDS011;10535;50.664;4.564;2022-08-01T10:44:43;2.63;;;1.15;;
20749;SDS011;10535;50.664;4.564;2022-08-01T10:47:18;1.15;;;1.00;;
20749;SDS011;10535;50.664;4.564;2022-08-01T10:50:04;1.25;;;1.15;;
20749;SDS011;10535;50.664;4.564;2022-08-01T10:53:03;1.60;;;1.50;;
20749;SDS011;10535;50.664;4.564;2022-08-01T10:55:52;3.05;;;1.50;;
20749;SDS011;10535;50.664;4.564;2022-08-01T10:58:35;1.30;;;1.17;;
20749;SDS011;10535;50.664;4.564;2022-08-01T11:01:19;1.73;;;1.35;;
20749;SDS011;10535;50.664;4.564;2022-08-01T11:06:54;1.55;;;;;
20749;SDS011;10535;50.664;4.564;2022-08-01T11:09:43;1.23;;;1.05;;
20749;SDS011;10535;50.664;4.564;2022-08-01T11:12:17;2.72;;;1.55;;
20749;SDS011;10535;50.664;4.564;2022-08-01T11:17:56;2.45;;;1.10;;
20749;SDS011;10535;50.664;4.564;2022-08-01T11:28:18;2.50;;;1.17;;
20749;SDS011;10535;50.664;4.564;2022-08-01T11:36:27;1.27;;;1.17;;
20749;SDS011;10535;50.664;4.564;2022-08-01T11:41:37;1.33;;;1.13;;
20749;SDS011;10535;50.664;4.564;2022-08-01T11:44:08;1.00;;;0.85;;
20749;SDS011;10535;50.664;4.564;2022-08-01T11:46:55;1.25;;;0.88;;
20749;SDS011;10535;50.664;4.564;2022-08-01T11:49:35;1.20;;;0.90;;
20749;SDS011;10535;50.664;4.564;2022-08-01T11:54:45;1.30;;;0.93;;
20749;SDS011;10535;50.664;4.564;2022-08-01T11:57:19;0.75;;;0.75;;
20749;SDS011;10535;50.664;4.564;2022-08-01T12:00:17;1.00;;;0.90;;
20749;SDS011;10535;50.664;4.564;2022-08-01T12:02:45;1.40;;;0.82;;
20749;SDS011;10535;50.664;4.564;2022-08-01T12:05:50;0.93;;;0.88;;
20749;SDS011;10535;50.664;4.564;2022-08-01T12:08:29;1.10;;;1.00;;
20749;SDS011;10535;50.664;4.564;2022-08-01T12:11:02;0.98;;;0.75;;
20749;SDS011;10535;50.664;4.564;2022-08-01T12:13:39;0.90;;;0.90;;
20749;SDS011;10535;50.664;4.564;2022-08-01T12:16:18;1.40;;;0.82;;
20749;SDS011;10535;50.664;4.564;2022-08-01T12:19:27;0.75;;;0.75;;
20749;SDS011;10535;50.664;4.564;2022-08-01T12:24:40;4.22;;;1.00;;
20749;SDS011;10535;50.664;4.564;2022-08-01T12:27:26;1.02;;;0.95;;
20749;SDS011;10535;50.664;4.564;2022-08-01T12:29:59;1.27;;;0.98;;
20749;SDS011;10535;50.664;4.564;2022-08-01T12:32:53;1.10;;;0.90;;
20749;SDS011;10535;50.664;4.564;2022-08-01T12:35:21;1.50;;;1.27;;
20749;SDS011;10535;50.664;4.564;2022-08-01T12:37:49;1.27;;;1.13;;
20749;SDS011;10535;50.664;4.564;2022-08-01T12:40:56;3.35;;;0.90;;
20749;SDS011;10535;50.664;4.564;2022-08-01T12:43:26;1.00;;;1.00;;
20749;SDS011;10535;50.664;4.564;2022-08-01T12:46:20;3.33;;;1.17;;
20749;SDS011;10535;50.664;4.564;2022-08-01T12:48:46;0.82;;;0.82;;
20749;SDS011;10535;50.664;4.564;2022-08-01T12:51:25;1.35;;;0.90;;
20749;SDS011;10535;50.664;4.564;2022-08-01T12:54:16;1.15;;;1.02;;
20749;SDS011;10535;50.664;4.564;2022-08-01T12:56:53;1.15;;;1.02;;
20749;SDS011;10535;50.664;4.564;2022-08-01T12:59:28;0.80;;;0.80;;
20749;SDS011;10535;50.664;4.564;2022-08-01T13:01:54;1.65;;;1.10;;
20749;SDS011;10535;50.664;4.564;2022-08-01T13:04:27;1.20;;;0.88;;
20749;SDS011;10535;50.664;4.564;2022-08-01T13:06:54;0.88;;;0.88;;
20749;SDS011;10535;50.664;4.564;2022-08-01T13:09:29;1.75;;;1.10;;
20749;SDS011;10535;50.664;4.564;2022-08-01T13:11:57;1.20;;;0.75;;
20749;SDS011;10535;50.664;4.564;2022-08-01T13:14:29;0.85;;;0.80;;
20749;SDS011;10535;50.664;4.564;2022-08-01T13:17:35;0.70;;;0.70;;
20749;SDS011;10535;50.664;4.564;2022-08-01T13:20:02;1.02;;;1.00;;
20749;SDS011;10535;50.664;4.564;2022-08-01T13:22:33;0.50;;;0.50;;
20749;SDS011;10535;50.664;4.564;2022-08-01T13:25:15;1.08;;;0.90;;
20749;SDS011;10535;50.664;4.564;2022-08-01T13:30:50;0.80;;;0.80;;
20749;SDS011;10535;50.664;4.564;2022-08-01T13:33:47;2.25;;;0.93;;
20749;SDS011;10535;50.664;4.564;2022-08-01T13:36:30;1.20;;;0.73;;
20749;SDS011;10535;50.664;4.564;2022-08-01T13:38:59;1.17;;;0.98;;
20749;SDS011;10535;50.664;4.564;2022-08-01T13:41:44;0.73;;;0.73;;
20749;SDS011;10535;50.664;4.564;2022-08-01T13:44:20;0.82;;;0.77;;
20749;SDS011;10535;50.664;4.564;2022-08-01T13:46:46;1.83;;;0.80;;
20749;SDS011;10535;50.664;4.564;2022-08-01T13:49:32;0.70;;;0.70;;
20749;SDS011;10535;50.664;4.564;2022-08-01T13:51:58;0.50;;;0.50;;
20749;SDS011;10535;50.664;4.564;2022-08-01T13:54:24;0.80;;;0.60;;
20749;SDS011;10535;50.664;4.564;2022-08-01T13:56:51;0.70;;;0.70;;
20749;SDS011;10535;50.664;4.564;2022-08-01T13:59:17;0.82;;;0.68;;
20749;SDS011;10535;50.664;4.564;2022-08-01T14:01:43;0.50;;;0.50;;
20749;SDS011;10535;50.664;4.564;2022-08-01T14:04:09;1.00;;;0.70;;
20749;SDS011;10535;50.664;4.564;2022-08-01T14:06:36;1.95;;;1.10;;
20749;SDS011;10535;50.664;4.564;2022-08-01T14:09:05;0.93;;;0.70;;
20749;SDS011;10535;50.664;4.564;2022-08-01T14:11:31;0.75;;;0.65;;
20749;SDS011;10535;50.664;4.564;2022-08-01T14:14:03;0.50;;;0.50;;
20749;SDS011;10535;50.664;4.564;2022-08-01T14:17:02;0.50;;;0.47;;
20749;SDS011;10535;50.664;4.564;2022-08-01T14:19:27;0.70;;;0.70;;
20749;SDS011;10535;50.664;4.564;2022-08-01T14:21:53;0.47;;;0.47;;
20749;SDS011;10535;50.664;4.564;2022-08-01T14:24:19;0.75;;;0.75;;
20749;SDS011;10535;50.664;4.564;2022-08-01T14:26:44;0.77;;;0.73;;
20749;SDS011;10535;50.664;4.564;2022-08-01T14:29:10;0.57;;;0.57;;
20749;SDS011;10535;50.664;4.564;2022-08-01T14:31:36;0.88;;;0.80;;
20749;SDS011;10535;50.664;4.564;2022-08-01T14:34:04;1.75;;;0.88;;
20749;SDS011;10535;50.664;4.564;2022-08-01T14:36:30;1.55;;;0.80;;
20749;SDS011;10535;50.664;4.564;2022-08-01T14:38:55;0.82;;;0.70;;
20749;SDS011;10535;50.664;4.564;2022-08-01T14:41:21;1.98;;;0.75;;
20749;SDS011;10535;50.664;4.564;2022-08-01T14:43:47;1.13;;;0.50;;
20749;SDS011;10535;50.664;4.564;2022-08-01T14:46:12;0.98;;;0.73;;
20749;SDS011;10535;50.664;4.564;2022-08-01T14:48:38;0.85;;;0.85;;
20749;SDS011;10535;50.664;4.564;2022-08-01T14:51:04;1.42;;;0.73;;
20749;SDS011;10535;50.664;4.564;2022-08-01T14:53:31;1.02;;;0.93;;
20749;SDS011;10535;50.664;4.564;2022-08-01T14:55:58;0.60;;;0.60;;
20749;SDS011;10535;50.664;4.564;2022-08-01T14:58:23;0.98;;;0.45;;
20749;SDS011;10535;50.664;4.564;2022-08-01T15:00:49;0.65;;;0.65;;
20749;SDS011;10535;50.664;4.564;2022-08-01T15:03:19;1.52;;;0.80;;
20749;SDS011;10535;50.664;4.564;2022-08-01T15:05:45;0.75;;;0.73;;
20749;SDS011;10535;50.664;4.564;2022-08-01T15:08:10;1.77;;;0.73;;
20749;SDS011;10535;50.664;4.564;2022-08-01T15:10:36;0.63;;;0.63;;
20749;SDS011;10535;50.664;4.564;2022-08-01T15:13:02;1.13;;;0.80;;
20749;SDS011;10535;50.664;4.564;2022-08-01T15:15:28;0.55;;;0.55;;
20749;SDS011;10535;50.664;4.564;2022-08-01T15:17:53;1.70;;;0.73;;
20749;SDS011;10535;50.664;4.564;2022-08-01T15:20:19;1.83;;;0.80;;
20749;SDS011;10535;50.664;4.564;2022-08-01T15:22:45;1.20;;;0.70;;
20749;SDS011;10535;50.664;4.564;2022-08-01T15:25:10;1.02;;;0.82;;
20749;SDS011;10535;50.664;4.564;2022-08-01T15:27:36;1.15;;;0.75;;
20749;SDS011;10535;50.664;4.564;2022-08-01T15:30:02;1.35;;;0.70;;
20749;SDS011;10535;50.664;4.564;2022-08-01T15:32:28;1.58;;;0.93;;
20749;SDS011;10535;50.664;4.564;2022-08-01T15:34:54;1.15;;;1.05;;
20749;SDS011;10535;50.664;4.564;2022-08-01T15:37:20;0.60;;;0.60;;
20749;SDS011;10535;50.664;4.564;2022-08-01T15:39:45;1.20;;;0.93;;
20749;SDS011;10535;50.664;4.564;2022-08-01T15:42:13;0.63;;;0.63;;
20749;SDS011;10535;50.664;4.564;2022-08-01T15:44:40;1.50;;;0.60;;
20749;SDS011;10535;50.664;4.564;2022-08-01T15:47:06;2.67;;;0.80;;
20749;SDS011;10535;50.664;4.564;2022-08-01T15:49:32;2.95;;;0.95;;
20749;SDS011;10535;50.664;4.564;2022-08-01T15:52:00;0.85;;;0.73;;
20749;SDS011;10535;50.664;4.564;2022-08-01T15:54:27;2.15;;;0.68;;
20749;SDS011;10535;50.664;4.564;2022-08-01T15:56:52;0.77;;;0.65;;